Detall de PIREP

Printer-friendly versionPDF version

[2013/01/27 10:45:00]
Flight IATA:CT0001
Pilot Number:042
Company ICAO:CAT
Aircraft Type:C750/F
PAX:2
Departing Airport: LEIB
Destination Airport: LERS
Alternate Airport:LEBL
Online: VATSIM
Route:GODOX A293 EBROX
Flight Level:F180
No Slew and time accel
No pause
Crash detect
Detect pilot in Cockpit between each 30 and 45 minutes
10:45 Zero fuel Weight: 22920 Lbs, Fuel Weight: 12980 Lbs
10:45 VATSIM:LEIB 271030Z 20009KT CAVOK 15/13 Q1018 NOSIG
10:45 VATSIM:LERS 271030Z VRB01KT CAVOK 14/02 Q1015
10:45 VOICE CATALONIAN
10:51 Parking Brakes off
11:01 Take-off
11:01 Take off Weight: 35750 Lbs
11:01 Wind: 212º @ 012 Knots Heading: 239º
11:01 POS N38º 52´ 17´´ E001º 22´ 13´´
11:01 Gear Up: 155 Knots
11:01 Flaps:4 at 155 Knots
11:02 Flaps:3 at 154 Knots
11:02 Flaps:2 at 199 Knots
11:08 TOC
11:08 Fuel Weight: 12472 Lb
11:16 Wind:312º@039 Knots Heading: 350º Ground Speed: 348 Knots Altitude 17988 ft
11:24 TOD
11:24 Fuel Weight: 11932 Lb
11:31 Wind:334º@026 Knots Heading: 000º Ground Speed: 183 Knots Altitude 5984 ft
11:33 Flaps:3 at 213 Knots
11:42 Flaps:4 at 164 Knots
11:42 Gear Down: 165 Knots
11:42 Flaps:5 at 165 Knots
11:45 TouchDown:Rate -43 ft/min Speed: 108 Knots
11:45 VATSIM:LERS 271130Z VRB01KT 9999 FEW045 14/03 Q1015
11:45 Land
11:45 Wind:000º@000 Knots
11:45 Heading: 249º
11:45 Flight Duration: 00:44
11:45 Landing Weight: 34609 Lbs
11:45 POS N41º 08´ 48´´ E001º 09´ 51´´
11:47 Parking brakes on
11:47 Block to Block Duration: 00:56
11:47 Final Fuel: 11673 Lbls
11:47 Spent Fuel: 1307 Lbls
11:47 Flight Length: 209 NM
11:47 TOD Land Length: 73 NM

Exportar CSV

Powered by Drupal - Modified by Danger4k